createdAt,value
2019-02-07T00:01:13.905Z,100.00
2019-02-07T00:04:03.626Z,100.00
2019-02-07T00:06:54.644Z,100.00
2019-02-07T00:09:44.594Z,100.00
2019-02-07T00:12:34.089Z,100.00
2019-02-07T00:15:23.800Z,100.00
2019-02-07T00:18:13.147Z,100.00
2019-02-07T00:21:02.593Z,100.00
2019-02-07T00:23:51.939Z,100.00
2019-02-07T00:26:41.485Z,100.00
2019-02-07T00:29:30.855Z,100.00
2019-02-07T00:32:21.217Z,100.00
2019-02-07T00:35:11.575Z,100.00
2019-02-07T00:38:01.767Z,100.00
2019-02-07T00:40:51.026Z,100.00
2019-02-07T00:43:40.226Z,100.00
2019-02-07T00:46:29.595Z,100.00
2019-02-07T00:49:19.912Z,100.00
2019-02-07T00:52:09.439Z,100.00
2019-02-07T00:54:59.035Z,100.00
2019-02-07T00:57:48.479Z,100.00
2019-02-07T01:00:39.223Z,100.00
2019-02-07T01:03:29.517Z,100.00
2019-02-07T01:06:19.061Z,100.00
2019-02-07T01:09:10.307Z,100.00
2019-02-07T01:11:59.349Z,100.00
2019-02-07T01:14:48.971Z,100.00
2019-02-07T01:17:38.453Z,100.00
2019-02-07T01:20:28.136Z,100.00
2019-02-07T01:23:18.010Z,100.00
2019-02-07T01:26:06.939Z,100.00
2019-02-07T01:28:56.800Z,100.00
2019-02-07T01:31:46.726Z,100.00
2019-02-07T01:34:35.770Z,100.00
2019-02-07T01:37:25.605Z,100.00
2019-02-07T01:40:18.447Z,100.00
2019-02-07T01:43:08.044Z,100.00
2019-02-07T01:45:56.992Z,100.00
2019-02-07T01:48:46.871Z,100.00
2019-02-07T01:51:36.245Z,100.00
2019-02-07T01:54:25.800Z,100.00
2019-02-07T01:57:15.485Z,100.00
2019-02-07T02:00:09.540Z,100.00
2019-02-07T02:02:58.762Z,100.00
2019-02-07T02:05:48.784Z,100.00
2019-02-07T02:08:38.648Z,100.00
2019-02-07T02:11:28.283Z,100.00
2019-02-07T02:14:18.568Z,100.00
2019-02-07T02:17:08.286Z,100.00
2019-02-07T02:19:57.431Z,100.00
2019-02-07T02:22:46.910Z,100.00
2019-02-07T02:25:35.863Z,100.00
2019-02-07T02:28:25.346Z,100.00
2019-02-07T02:31:15.106Z,100.00
2019-02-07T02:34:04.697Z,100.00
2019-02-07T02:36:54.239Z,100.00
2019-02-07T02:39:43.631Z,100.00
2019-02-07T02:42:34.745Z,100.00
2019-02-07T02:45:36.623Z,100.00
2019-02-07T02:48:16.218Z,100.00
2019-02-07T02:51:06.168Z,100.00
2019-02-07T02:53:57.193Z,100.00
2019-02-07T02:56:46.643Z,100.00
2019-02-07T02:59:36.221Z,100.00
2019-02-07T03:02:40.577Z,100.00
2019-02-07T03:05:49.507Z,100.00
2019-02-07T03:08:52.727Z,100.00
2019-02-07T03:12:04.172Z,100.00
2019-02-07T03:15:15.184Z,100.00
2019-02-07T03:18:22.186Z,100.00
2019-02-07T03:21:29.754Z,100.00
2019-02-07T03:24:39.133Z,100.00
2019-02-07T03:28:07.833Z,100.00
2019-02-07T03:31:15.749Z,100.00
2019-02-07T03:34:30.810Z,100.00
2019-02-07T03:37:35.916Z,100.00
2019-02-07T03:40:43.099Z,100.00
2019-02-07T03:43:50.432Z,100.00
2019-02-07T03:47:02.004Z,100.00
2019-02-07T03:50:05.077Z,100.00
2019-02-07T03:53:12.549Z,100.00
2019-02-07T03:56:31.856Z,100.00
2019-02-07T03:59:42.532Z,100.00
2019-02-07T04:03:03.751Z,100.00
2019-02-07T04:06:14.517Z,100.00
2019-02-07T04:09:17.723Z,100.00
2019-02-07T04:12:38.617Z,100.00
2019-02-07T04:15:58.700Z,100.00
2019-02-07T04:19:06.983Z,100.00
2019-02-07T04:22:15.462Z,100.00
2019-02-07T04:25:33.079Z,100.00
2019-02-07T04:28:45.451Z,100.00
2019-02-07T04:32:12.883Z,100.00
2019-02-07T04:35:25.368Z,100.00
2019-02-07T04:38:49.315Z,100.00
2019-02-07T04:42:20.598Z,100.00
2019-02-07T04:45:29.237Z,100.00
2019-02-07T04:48:28.544Z,100.00
2019-02-07T04:51:29.381Z,100.00
2019-02-07T04:54:52.037Z,100.00
2019-02-07T04:58:02.588Z,100.00
2019-02-07T05:01:15.746Z,100.00
2019-02-07T05:04:27.907Z,100.00
2019-02-07T05:07:38.983Z,100.00
2019-02-07T05:10:46.172Z,100.00
2019-02-07T05:13:53.007Z,100.00
2019-02-07T05:16:54.207Z,100.00
2019-02-07T05:20:02.641Z,100.00
2019-02-07T05:23:21.088Z,100.00
2019-02-07T05:26:20.746Z,100.00
2019-02-07T05:29:41.755Z,100.00
2019-02-07T05:32:54.497Z,100.00
2019-02-07T05:36:01.570Z,100.00
2019-02-07T05:39:13.153Z,100.00
2019-02-07T05:42:30.579Z,100.00
2019-02-07T05:45:39.412Z,100.00
2019-02-07T05:48:47.041Z,100.00
2019-02-07T05:52:02.190Z,100.00
2019-02-07T05:55:16.524Z,100.00
2019-02-07T05:58:24.650Z,100.00
2019-02-07T06:01:31.636Z,100.00
2019-02-07T06:04:39.018Z,100.00
2019-02-07T06:07:47.115Z,100.00
2019-02-07T06:11:11.283Z,100.00
2019-02-07T06:14:09.088Z,100.00
2019-02-07T06:17:23.385Z,100.00
2019-02-07T06:20:30.014Z,100.00
2019-02-07T06:23:46.893Z,100.00
2019-02-07T06:26:58.216Z,100.00
2019-02-07T06:29:55.389Z,100.00
2019-02-07T06:33:02.723Z,100.00
2019-02-07T06:36:04.979Z,100.00
2019-02-07T06:39:08.647Z,100.00
2019-02-07T06:42:16.295Z,100.00
2019-02-07T06:45:23.231Z,99.87
2019-02-07T06:48:34.287Z,97.66
2019-02-07T06:51:45.877Z,99.59
2019-02-07T06:54:50.833Z,100.00
2019-02-07T06:57:57.568Z,100.00
2019-02-07T07:01:08.919Z,100.00
2019-02-07T07:04:20.021Z,100.00
2019-02-07T07:07:30.632Z,100.00
2019-02-07T07:10:45.143Z,100.00
2019-02-07T07:13:53.094Z,100.00
2019-02-07T07:17:02.134Z,100.00
2019-02-07T07:20:20.392Z,100.00
2019-02-07T07:23:36.012Z,100.00
2019-02-07T07:27:02.777Z,100.00
2019-02-07T07:30:10.017Z,100.00
2019-02-07T07:33:14.316Z,99.63
2019-02-07T07:36:21.389Z,98.62
2019-02-07T07:39:39.388Z,99.29
2019-02-07T07:42:42.295Z,98.49
2019-02-07T07:45:43.237Z,100.00
2019-02-07T07:48:50.529Z,98.57
2019-02-07T07:51:58.006Z,99.84
2019-02-07T07:55:09.710Z,90.48
2019-02-07T07:58:20.275Z,88.97
2019-02-07T08:01:37.408Z,85.91
2019-02-07T08:04:54.991Z,84.43
2019-02-07T08:08:09.228Z,83.40
2019-02-07T08:11:32.642Z,78.38
2019-02-07T08:14:39.643Z,79.54
2019-02-07T08:17:47.829Z,80.88
2019-02-07T08:20:55.548Z,82.46
2019-02-07T08:24:03.568Z,82.50
2019-02-07T08:27:10.644Z,84.96
2019-02-07T08:30:16.474Z,87.13
2019-02-07T08:33:28.539Z,88.83
2019-02-07T08:36:42.320Z,86.42
2019-02-07T08:39:43.441Z,86.08
2019-02-07T08:42:50.693Z,87.25
2019-02-07T08:45:57.632Z,85.97
2019-02-07T08:49:12.443Z,85.23
2019-02-07T08:52:21.725Z,85.79
2019-02-07T08:55:48.731Z,84.97
2019-02-07T08:58:51.368Z,82.29
2019-02-07T09:02:12.686Z,84.96
2019-02-07T09:05:33.270Z,82.80
2019-02-07T09:08:32.027Z,81.34
2019-02-07T09:11:40.603Z,83.54
2019-02-07T09:14:56.769Z,82.04
2019-02-07T09:18:11.366Z,82.27
2019-02-07T09:21:11.503Z,82.35
2019-02-07T09:24:26.782Z,83.74
2019-02-07T09:27:38.419Z,81.78
2019-02-07T09:30:44.645Z,81.92
2019-02-07T09:33:53.034Z,80.67
2019-02-07T09:37:03.977Z,77.89
2019-02-07T09:40:03.632Z,79.00
2019-02-07T09:43:15.429Z,78.13
2019-02-07T09:46:32.834Z,77.25
2019-02-07T09:49:32.598Z,74.83
2019-02-07T09:52:36.963Z,77.50
2019-02-07T09:55:34.683Z,77.16
2019-02-07T09:58:41.984Z,73.15
2019-02-07T10:01:53.078Z,75.96
2019-02-07T10:04:55.707Z,76.85
2019-02-07T10:08:14.199Z,73.74
2019-02-07T10:11:32.644Z,73.33
2019-02-07T10:14:41.063Z,74.71
2019-02-07T10:17:58.612Z,73.88
2019-02-07T10:21:13.260Z,71.32
2019-02-07T10:24:33.627Z,70.53
2019-02-07T10:27:41.423Z,70.34
2019-02-07T10:30:44.550Z,72.26
2019-02-07T10:33:53.207Z,71.74
2019-02-07T10:37:07.653Z,71.12
2019-02-07T10:40:14.171Z,73.89
2019-02-07T10:43:27.556Z,73.16
2019-02-07T10:46:34.832Z,74.48
2019-02-07T10:49:44.764Z,71.39
2019-02-07T10:53:00.348Z,71.79
2019-02-07T10:56:08.984Z,71.28
2019-02-07T10:59:17.149Z,71.69
2019-02-07T11:02:29.418Z,71.76
2019-02-07T11:05:35.975Z,71.52
2019-02-07T11:08:44.704Z,72.15
2019-02-07T11:11:51.643Z,70.73
2019-02-07T11:15:03.217Z,71.01
2019-02-07T11:18:14.900Z,71.22
2019-02-07T11:21:25.487Z,69.79
2019-02-07T11:24:36.475Z,69.38
2019-02-07T11:27:34.404Z,68.62
2019-02-07T11:30:36.045Z,67.25
2019-02-07T11:33:42.170Z,68.92
2019-02-07T11:36:56.338Z,68.93
2019-02-07T11:40:12.480Z,68.55
2019-02-07T11:43:24.090Z,68.24
2019-02-07T11:46:44.441Z,68.57
2019-02-07T11:49:52.226Z,68.63
2019-02-07T11:52:54.253Z,67.88
2019-02-07T11:56:10.066Z,68.36
2019-02-07T11:59:13.544Z,70.42
2019-02-07T12:02:20.531Z,70.70
2019-02-07T12:05:35.681Z,65.96
2019-02-07T12:08:46.964Z,65.83
2019-02-07T12:11:53.329Z,62.06
2019-02-07T12:15:04.681Z,62.88
2019-02-07T12:18:25.510Z,61.53
2019-02-07T12:21:39.717Z,59.47
2019-02-07T12:24:59.948Z,61.48
2019-02-07T12:28:08.594Z,63.33
2019-02-07T12:31:15.766Z,63.05
2019-02-07T12:34:19.092Z,62.63
2019-02-07T12:37:34.399Z,64.61
2019-02-07T12:40:41.828Z,66.33
2019-02-07T12:43:56.379Z,64.76
2019-02-07T12:47:07.601Z,64.62
2019-02-07T12:50:14.224Z,63.49
2019-02-07T12:53:21.800Z,63.10
2019-02-07T12:56:28.863Z,62.52
2019-02-07T12:59:44.508Z,66.63
2019-02-07T13:03:11.088Z,70.68
2019-02-07T13:06:20.469Z,69.59
2019-02-07T13:09:40.356Z,66.67
2019-02-07T13:12:43.754Z,66.58
2019-02-07T13:16:09.943Z,69.54
2019-02-07T13:19:17.888Z,70.95
2019-02-07T13:22:10.614Z,71.14
2019-02-07T13:25:04.828Z,69.52
2019-02-07T13:27:52.977Z,69.70
2019-02-07T13:30:57.578Z,69.03
2019-02-07T13:33:46.300Z,70.36
2019-02-07T13:36:35.305Z,70.38
2019-02-07T13:39:27.735Z,68.84
2019-02-07T13:42:16.845Z,67.96
2019-02-07T13:45:18.857Z,67.33
2019-02-07T13:48:07.884Z,67.28
2019-02-07T13:50:57.094Z,68.39
2019-02-07T13:53:50.561Z,68.71
2019-02-07T13:56:55.848Z,70.89
2019-02-07T13:59:57.693Z,72.91
2019-02-07T14:03:05.726Z,73.20
2019-02-07T14:06:07.589Z,74.05
2019-02-07T14:08:48.098Z,73.24
2019-02-07T14:11:47.633Z,72.26
2019-02-07T14:14:32.392Z,73.08
2019-02-07T14:17:20.335Z,75.65
2019-02-07T14:20:13.947Z,72.31
2019-02-07T14:23:13.468Z,71.38
2019-02-07T14:26:06.229Z,70.90
2019-02-07T14:29:00.612Z,71.75
2019-02-07T14:31:49.501Z,73.29
2019-02-07T14:34:39.419Z,73.20
2019-02-07T14:37:23.945Z,72.23
2019-02-07T14:40:13.081Z,70.50
2019-02-07T14:43:22.307Z,70.49
2019-02-07T14:46:15.257Z,69.90
2019-02-07T14:48:47.148Z,73.26
2019-02-07T14:51:19.157Z,71.22
2019-02-07T14:53:51.097Z,70.48
2019-02-07T14:56:22.446Z,71.71
2019-02-07T14:58:53.735Z,71.49
2019-02-07T15:01:24.873Z,72.44
2019-02-07T15:03:56.800Z,72.87
2019-02-07T15:06:28.342Z,72.52
2019-02-07T15:08:59.461Z,72.38
2019-02-07T15:11:31.576Z,72.60
2019-02-07T15:14:02.690Z,72.99
2019-02-07T15:16:34.250Z,73.04
2019-02-07T15:19:05.265Z,73.75
2019-02-07T15:21:36.708Z,74.13
2019-02-07T15:24:09.355Z,73.52
2019-02-07T15:26:40.492Z,74.42
2019-02-07T15:29:12.293Z,72.52
2019-02-07T15:31:43.318Z,73.38
2019-02-07T15:34:14.443Z,72.61
2019-02-07T15:36:48.658Z,74.44
2019-02-07T15:39:21.822Z,76.74
2019-02-07T15:41:54.604Z,78.48
2019-02-07T15:44:25.716Z,79.09
2019-02-07T15:46:57.096Z,80.04
2019-02-07T15:49:34.570Z,80.34
2019-02-07T15:52:06.036Z,81.21
2019-02-07T15:54:38.284Z,81.27
2019-02-07T15:57:09.352Z,81.19
2019-02-07T15:59:59.351Z,82.10
2019-02-07T16:02:49.331Z,82.58
2019-02-07T16:05:21.026Z,82.35
2019-02-07T16:07:52.341Z,83.15
2019-02-07T16:10:24.463Z,82.85
2019-02-07T16:12:56.751Z,82.95
2019-02-07T16:15:28.703Z,84.13
2019-02-07T16:18:02.626Z,83.63
2019-02-07T16:20:35.579Z,81.82
2019-02-07T16:23:07.337Z,82.51
2019-02-07T16:25:42.541Z,85.04
2019-02-07T16:28:14.109Z,86.49
2019-02-07T16:30:45.780Z,89.42
2019-02-07T16:33:22.658Z,88.59
2019-02-07T16:35:54.363Z,87.43
2019-02-07T16:38:25.657Z,87.54
2019-02-07T16:40:57.019Z,89.66
2019-02-07T16:43:28.652Z,89.90
2019-02-07T16:46:00.178Z,86.42
2019-02-07T16:48:31.593Z,86.50
2019-02-07T16:51:03.000Z,88.22
2019-02-07T16:53:34.835Z,89.15
2019-02-07T16:56:08.455Z,89.05
2019-02-07T16:58:39.694Z,89.95
2019-02-07T17:01:11.303Z,90.24
2019-02-07T17:03:42.799Z,90.54
2019-02-07T17:06:14.612Z,91.02
2019-02-07T17:08:46.148Z,90.35
2019-02-07T17:11:17.227Z,90.99
2019-02-07T17:13:49.607Z,91.21
2019-02-07T17:16:25.014Z,90.61
2019-02-07T17:18:56.391Z,89.58
2019-02-07T17:21:27.647Z,90.58
2019-02-07T17:24:00.648Z,90.16
2019-02-07T17:26:31.797Z,91.90
2019-02-07T17:29:04.052Z,91.55
2019-02-07T17:31:35.263Z,92.20
2019-02-07T17:34:09.714Z,91.45
2019-02-07T17:36:56.767Z,90.06
2019-02-07T17:39:30.644Z,90.48
2019-02-07T17:42:02.253Z,92.77
2019-02-07T17:44:33.973Z,92.33
2019-02-07T17:47:05.099Z,93.65
2019-02-07T17:49:36.694Z,92.95
2019-02-07T17:52:10.109Z,90.96
2019-02-07T17:54:41.126Z,90.81
2019-02-07T17:57:12.501Z,92.54
2019-02-07T17:59:45.482Z,91.31
2019-02-07T18:02:17.509Z,92.54
2019-02-07T18:04:48.747Z,92.39
2019-02-07T18:07:20.085Z,93.22
2019-02-07T18:09:51.291Z,92.03
2019-02-07T18:12:22.884Z,92.61
2019-02-07T18:14:57.441Z,95.65
2019-02-07T18:17:35.239Z,97.93
2019-02-07T18:20:08.936Z,98.68
2019-02-07T18:25:43.142Z,98.54
2019-02-07T18:28:21.680Z,96.57
2019-02-07T18:30:53.318Z,95.27
2019-02-07T18:33:24.390Z,95.36
2019-02-07T18:35:56.047Z,96.03
2019-02-07T18:38:27.635Z,96.29
2019-02-07T18:41:00.156Z,95.72
2019-02-07T18:43:34.661Z,96.87
2019-02-07T18:46:07.897Z,97.44
2019-02-07T18:48:39.143Z,97.29
2019-02-07T18:51:14.642Z,97.16
2019-02-07T18:53:47.427Z,95.70
2019-02-07T18:56:18.510Z,94.56
2019-02-07T18:58:50.111Z,94.53
2019-02-07T19:01:21.685Z,93.47
2019-02-07T19:03:52.780Z,93.87
2019-02-07T19:06:24.108Z,94.98
2019-02-07T19:08:56.086Z,94.15
2019-02-07T19:11:27.525Z,93.00
2019-02-07T19:13:59.321Z,94.13
2019-02-07T19:16:32.370Z,95.06
2019-02-07T19:19:03.957Z,94.19
2019-02-07T19:21:35.022Z,91.30
2019-02-07T19:24:06.602Z,90.23
2019-02-07T19:26:38.176Z,91.69
2019-02-07T19:29:17.141Z,90.61
2019-02-07T19:31:49.836Z,90.35
2019-02-07T19:34:22.217Z,89.96
2019-02-07T19:36:53.855Z,89.75
2019-02-07T19:39:26.434Z,89.89
2019-02-07T19:41:58.250Z,90.46
2019-02-07T19:44:30.226Z,90.62
2019-02-07T19:47:06.813Z,90.65
2019-02-07T19:49:38.451Z,89.98
2019-02-07T19:52:10.473Z,91.67
2019-02-07T19:54:42.166Z,92.23
2019-02-07T19:57:13.757Z,92.26
2019-02-07T19:59:46.669Z,90.92
2019-02-07T20:02:18.236Z,91.17
2019-02-07T20:04:50.131Z,91.87
2019-02-07T20:07:26.224Z,89.86
2019-02-07T20:09:58.202Z,89.33
2019-02-07T20:12:29.664Z,89.68
2019-02-07T20:15:01.226Z,90.03
2019-02-07T20:17:33.496Z,91.19
2019-02-07T20:20:05.918Z,92.62
2019-02-07T20:22:37.426Z,94.11
2019-02-07T20:25:09.782Z,96.45
2019-02-07T20:27:40.893Z,98.33
2019-02-07T20:30:18.661Z,99.72
2019-02-07T20:32:50.474Z,99.82
2019-02-07T20:35:21.699Z,100.00
2019-02-07T20:37:52.842Z,99.51
2019-02-07T20:40:28.105Z,98.66
2019-02-07T20:42:59.884Z,98.31
2019-02-07T20:45:30.919Z,99.67
2019-02-07T20:48:03.066Z,99.88
2019-02-07T20:50:34.478Z,99.71
2019-02-07T20:53:05.995Z,99.91
2019-02-07T20:55:37.190Z,98.18
2019-02-07T20:58:09.822Z,96.64
2019-02-07T21:00:59.876Z,95.94
2019-02-07T21:03:48.949Z,96.60
2019-02-07T21:06:38.707Z,97.24
2019-02-07T21:09:29.037Z,100.00
2019-02-07T21:12:19.874Z,100.00
2019-02-07T21:15:18.522Z,99.93
2019-02-07T21:18:04.140Z,100.00
2019-02-07T21:20:53.906Z,100.00
2019-02-07T21:23:42.941Z,100.00
2019-02-07T21:26:37.578Z,100.00
2019-02-07T21:29:27.400Z,100.00
2019-02-07T21:32:17.111Z,100.00
2019-02-07T21:35:07.667Z,100.00
2019-02-07T21:37:57.100Z,100.00
2019-02-07T21:40:47.120Z,100.00
2019-02-07T21:43:37.247Z,100.00
2019-02-07T21:46:28.015Z,100.00
2019-02-07T21:49:18.487Z,100.00
2019-02-07T21:52:07.920Z,100.00
2019-02-07T21:55:02.363Z,100.00
2019-02-07T21:57:53.010Z,100.00
2019-02-07T22:00:44.994Z,100.00
2019-02-07T22:03:34.553Z,100.00
2019-02-07T22:06:24.011Z,100.00
2019-02-07T22:09:14.599Z,100.00
2019-02-07T22:12:04.006Z,100.00
2019-02-07T22:14:53.470Z,100.00
2019-02-07T22:17:43.678Z,100.00
2019-02-07T22:20:34.150Z,100.00
2019-02-07T22:23:24.033Z,100.00
2019-02-07T22:26:13.740Z,100.00
2019-02-07T22:29:03.849Z,100.00
2019-02-07T22:31:53.297Z,100.00
2019-02-07T22:34:42.807Z,100.00
2019-02-07T22:37:32.353Z,100.00
2019-02-07T22:40:23.047Z,100.00
2019-02-07T22:43:13.037Z,100.00
2019-02-07T22:46:02.839Z,100.00
2019-02-07T22:48:52.327Z,100.00
2019-02-07T22:51:42.218Z,100.00
2019-02-07T22:54:31.723Z,100.00
2019-02-07T22:57:21.899Z,100.00
2019-02-07T23:00:52.843Z,100.00
2019-02-07T23:03:53.881Z,100.00
2019-02-07T23:06:42.857Z,100.00
2019-02-07T23:09:33.207Z,100.00
2019-02-07T23:12:22.567Z,100.00
2019-02-07T23:15:13.113Z,100.00
2019-02-07T23:18:02.626Z,100.00
2019-02-07T23:20:52.104Z,100.00
2019-02-07T23:23:42.299Z,100.00
2019-02-07T23:26:31.767Z,100.00
2019-02-07T23:29:21.241Z,100.00
2019-02-07T23:32:11.774Z,100.00
2019-02-07T23:35:01.355Z,100.00
2019-02-07T23:37:51.302Z,100.00
2019-02-07T23:40:40.608Z,100.00
2019-02-07T23:43:30.075Z,100.00
2019-02-07T23:46:19.485Z,100.00
2019-02-07T23:49:09.044Z,100.00
2019-02-07T23:51:58.677Z,100.00
2019-02-07T23:54:48.635Z,100.00
2019-02-07T23:57:38.171Z,100.00
